createdAt,value
2019-02-19T00:00:38.135Z,0.00
2019-02-19T00:01:38.086Z,0.00
2019-02-19T00:03:30.875Z,0.00
2019-02-19T00:04:30.739Z,0.00
2019-02-19T00:06:23.514Z,0.00
2019-02-19T00:07:23.436Z,0.00
2019-02-19T00:09:15.211Z,0.00
2019-02-19T00:10:15.155Z,0.00
2019-02-19T00:12:07.923Z,0.00
2019-02-19T00:13:07.894Z,0.00
2019-02-19T00:15:07.701Z,0.00
2019-02-19T00:15:59.571Z,0.00
2019-02-19T00:17:51.289Z,0.00
2019-02-19T00:18:51.196Z,0.00
2019-02-19T00:20:43.966Z,0.00
2019-02-19T00:21:43.903Z,0.00
2019-02-19T00:23:36.669Z,0.00
2019-02-19T00:24:36.588Z,0.00
2019-02-19T00:26:29.351Z,0.00
2019-02-19T00:27:29.279Z,0.00
2019-02-19T00:29:21.068Z,0.00
2019-02-19T00:30:20.979Z,0.00
2019-02-19T00:32:13.762Z,0.00
2019-02-19T00:33:13.639Z,0.00
2019-02-19T00:35:06.414Z,0.00
2019-02-19T00:36:06.338Z,0.00
2019-02-19T00:37:59.165Z,0.00
2019-02-19T00:38:59.023Z,0.00
2019-02-19T00:40:51.793Z,0.00
2019-02-19T00:41:51.728Z,0.00
2019-02-19T00:43:44.501Z,0.00
2019-02-19T00:44:44.412Z,0.00
2019-02-19T00:46:37.194Z,0.00
2019-02-19T00:47:37.119Z,0.00
2019-02-19T00:49:29.906Z,0.00
2019-02-19T00:50:29.824Z,0.00
2019-02-19T00:52:22.590Z,0.00
2019-02-19T00:53:22.509Z,0.00
2019-02-19T00:55:15.299Z,0.00
2019-02-19T00:56:15.237Z,0.00
2019-02-19T00:58:08.066Z,0.00
2019-02-19T00:59:07.913Z,0.00
2019-02-19T01:01:00.717Z,0.00
2019-02-19T01:02:00.629Z,0.00
2019-02-19T01:03:53.447Z,0.00
2019-02-19T01:04:53.339Z,0.00
2019-02-19T01:06:46.147Z,0.00
2019-02-19T01:07:46.071Z,0.00
2019-02-19T01:09:38.867Z,0.00
2019-02-19T01:10:38.776Z,0.00
2019-02-19T01:12:31.604Z,0.00
2019-02-19T01:13:31.488Z,0.00
2019-02-19T01:15:25.736Z,0.00
2019-02-19T01:16:24.181Z,0.00
2019-02-19T01:18:15.947Z,0.00
2019-02-19T01:19:15.885Z,0.00
2019-02-19T01:21:08.618Z,0.00
2019-02-19T01:22:08.646Z,0.00
2019-02-19T01:24:00.347Z,0.00
2019-02-19T01:25:00.259Z,0.00
2019-02-19T01:26:52.098Z,0.00
2019-02-19T01:27:52.075Z,0.00
2019-02-19T01:29:43.761Z,0.00
2019-02-19T01:30:43.660Z,0.00
2019-02-19T01:32:35.582Z,0.00
2019-02-19T01:33:35.514Z,0.00
2019-02-19T01:35:28.316Z,0.00
2019-02-19T01:36:28.263Z,0.00
2019-02-19T01:38:20.032Z,0.00
2019-02-19T01:39:19.940Z,0.00
2019-02-19T01:41:11.702Z,0.00
2019-02-19T01:42:11.611Z,0.00
2019-02-19T01:44:04.377Z,0.00
2019-02-19T01:45:04.283Z,0.00
2019-02-19T01:46:57.047Z,0.00
2019-02-19T01:47:57.028Z,0.00
2019-02-19T01:49:48.903Z,0.00
2019-02-19T01:50:48.842Z,0.00
2019-02-19T01:52:40.688Z,0.00
2019-02-19T01:53:40.631Z,0.00
2019-02-19T01:56:54.862Z,0.00
2019-02-19T01:57:54.778Z,0.00
2019-02-19T01:59:47.622Z,0.00
2019-02-19T02:00:47.525Z,0.00
2019-02-19T02:02:39.521Z,0.00
2019-02-19T02:03:39.430Z,0.00
2019-02-19T02:05:31.354Z,0.00
2019-02-19T02:06:31.275Z,0.00
2019-02-19T02:08:23.024Z,0.00
2019-02-19T02:09:23.020Z,0.00
2019-02-19T02:11:14.746Z,0.00
2019-02-19T02:12:14.625Z,0.00
2019-02-19T02:14:06.380Z,0.00
2019-02-19T02:15:06.301Z,0.00
2019-02-19T02:16:59.070Z,0.00
2019-02-19T02:17:59.009Z,0.00
2019-02-19T02:19:50.807Z,0.00
2019-02-19T02:20:50.937Z,0.00
2019-02-19T02:22:43.446Z,0.00
2019-02-19T02:23:43.366Z,0.00
2019-02-19T02:25:35.153Z,0.00
2019-02-19T02:26:35.086Z,0.00
2019-02-19T02:28:26.945Z,0.00
2019-02-19T02:29:26.829Z,0.00
2019-02-19T02:31:19.615Z,0.00
2019-02-19T02:32:19.522Z,0.00
2019-02-19T02:34:11.358Z,0.00
2019-02-19T02:35:11.512Z,0.00
2019-02-19T02:37:04.019Z,0.00
2019-02-19T02:38:03.943Z,0.00
2019-02-19T02:39:55.727Z,0.00
2019-02-19T02:40:55.648Z,0.00
2019-02-19T02:42:48.438Z,0.00
2019-02-19T02:43:48.365Z,0.00
2019-02-19T02:45:41.170Z,0.00
2019-02-19T02:46:41.076Z,0.00
2019-02-19T02:48:33.852Z,0.00
2019-02-19T02:49:33.767Z,0.00
2019-02-19T02:51:25.603Z,0.00
2019-02-19T02:52:25.525Z,0.00
2019-02-19T02:54:17.398Z,0.00
2019-02-19T02:55:17.337Z,0.00
2019-02-19T02:57:09.082Z,0.00
2019-02-19T02:58:09.069Z,0.00
2019-02-19T03:00:00.773Z,0.00
2019-02-19T03:01:00.721Z,0.00
2019-02-19T03:02:52.522Z,0.00
2019-02-19T03:03:52.456Z,0.00
2019-02-19T03:05:44.301Z,0.00
2019-02-19T03:06:44.175Z,0.00
2019-02-19T03:08:35.938Z,0.00
2019-02-19T03:09:35.892Z,0.00
2019-02-19T03:11:27.848Z,0.00
2019-02-19T03:12:27.717Z,0.00
2019-02-19T03:14:20.507Z,0.00
2019-02-19T03:15:20.398Z,0.00
2019-02-19T03:17:13.227Z,0.00
2019-02-19T03:18:13.607Z,0.00
2019-02-19T03:20:04.913Z,0.00
2019-02-19T03:21:04.813Z,0.00
2019-02-19T03:22:56.609Z,0.00
2019-02-19T03:23:56.519Z,0.00
2019-02-19T03:25:49.290Z,0.00
2019-02-19T03:26:49.208Z,0.00
2019-02-19T03:28:41.969Z,0.00
2019-02-19T03:29:41.893Z,0.00
2019-02-19T03:31:33.777Z,0.00
2019-02-19T03:32:33.885Z,0.00
2019-02-19T03:34:26.477Z,0.00
2019-02-19T03:35:26.416Z,0.00
2019-02-19T03:37:19.202Z,0.00
2019-02-19T03:38:19.134Z,0.00
2019-02-19T03:40:11.924Z,0.00
2019-02-19T03:41:12.148Z,0.00
2019-02-19T03:43:04.610Z,0.00
2019-02-19T03:44:04.516Z,0.00
2019-02-19T03:45:57.445Z,0.00
2019-02-19T03:46:57.326Z,0.00
2019-02-19T03:48:50.019Z,0.00
2019-02-19T03:49:49.964Z,0.00
2019-02-19T03:51:42.812Z,0.00
2019-02-19T03:52:42.794Z,0.00
2019-02-19T03:54:35.593Z,0.00
2019-02-19T03:55:35.501Z,0.00
2019-02-19T03:57:28.243Z,0.00
2019-02-19T03:58:28.171Z,0.00
2019-02-19T04:00:20.944Z,0.00
2019-02-19T04:01:20.846Z,0.00
2019-02-19T04:03:13.670Z,0.00
2019-02-19T04:04:13.564Z,0.00
2019-02-19T04:06:06.418Z,0.00
2019-02-19T04:07:06.229Z,0.00
2019-02-19T04:08:59.021Z,0.00
2019-02-19T04:09:58.907Z,0.00
2019-02-19T04:11:51.701Z,0.00
2019-02-19T04:12:51.603Z,0.00
2019-02-19T04:14:44.374Z,0.00
2019-02-19T04:15:44.296Z,0.00
2019-02-19T04:17:37.051Z,0.00
2019-02-19T04:18:36.997Z,0.00
2019-02-19T04:20:29.915Z,0.00
2019-02-19T04:21:29.701Z,0.00
2019-02-19T04:23:22.456Z,0.00
2019-02-19T04:24:22.374Z,0.00
2019-02-19T04:26:15.223Z,0.00
2019-02-19T04:27:15.169Z,0.00
2019-02-19T04:29:07.948Z,0.00
2019-02-19T04:30:07.863Z,0.00
2019-02-19T04:32:00.721Z,0.00
2019-02-19T04:33:00.665Z,0.00
2019-02-19T04:34:53.379Z,0.00
2019-02-19T04:35:53.314Z,0.00
2019-02-19T04:37:46.166Z,0.00
2019-02-19T04:38:46.038Z,0.00
2019-02-19T04:40:38.793Z,0.00
2019-02-19T04:41:38.747Z,0.00
2019-02-19T04:43:31.543Z,0.00
2019-02-19T04:44:31.398Z,0.00
2019-02-19T04:46:31.272Z,0.00
2019-02-19T04:47:23.190Z,0.00
2019-02-19T04:49:15.954Z,0.00
2019-02-19T04:50:15.885Z,0.00
2019-02-19T04:52:08.647Z,0.00
2019-02-19T04:53:08.561Z,0.00
2019-02-19T04:55:01.332Z,0.00
2019-02-19T04:56:01.295Z,0.00
2019-02-19T04:57:53.014Z,0.00
2019-02-19T04:58:52.960Z,0.00
2019-02-19T05:00:45.822Z,0.00
2019-02-19T05:01:45.631Z,0.00
2019-02-19T05:03:38.380Z,0.00
2019-02-19T05:04:38.312Z,0.00
2019-02-19T05:06:30.130Z,0.00
2019-02-19T05:07:30.036Z,0.00
2019-02-19T05:09:21.998Z,0.00
2019-02-19T05:10:21.921Z,0.00
2019-02-19T05:12:13.836Z,0.00
2019-02-19T05:13:13.757Z,0.00
2019-02-19T05:15:05.538Z,0.00
2019-02-19T05:16:05.449Z,0.00
2019-02-19T05:17:57.194Z,0.00
2019-02-19T05:18:57.106Z,0.00
2019-02-19T05:20:49.878Z,0.00
2019-02-19T05:21:49.835Z,0.00
2019-02-19T05:23:41.705Z,0.00
2019-02-19T05:24:41.625Z,0.00
2019-02-19T05:26:33.632Z,0.00
2019-02-19T05:27:33.646Z,0.00
2019-02-19T05:29:26.343Z,0.00
2019-02-19T05:30:26.250Z,0.00
2019-02-19T05:32:18.981Z,0.00
2019-02-19T05:33:18.909Z,0.00
2019-02-19T05:35:11.665Z,0.00
2019-02-19T05:36:11.600Z,0.00
2019-02-19T05:38:03.556Z,0.00
2019-02-19T05:39:03.506Z,0.00
2019-02-19T05:40:56.233Z,4.00
2019-02-19T05:41:56.149Z,0.00
2019-02-19T05:43:47.951Z,4.00
2019-02-19T05:44:47.879Z,0.00
2019-02-19T05:46:49.354Z,0.00
2019-02-19T05:47:40.611Z,4.00
2019-02-19T05:49:32.331Z,4.00
2019-02-19T05:50:32.258Z,4.00
2019-02-19T05:52:25.047Z,4.00
2019-02-19T05:53:24.948Z,8.00
2019-02-19T05:55:17.723Z,8.00
2019-02-19T05:56:17.642Z,12.00
2019-02-19T05:58:10.407Z,16.00
2019-02-19T05:59:10.330Z,20.00
2019-02-19T06:01:03.136Z,28.00
2019-02-19T06:02:03.041Z,32.00
2019-02-19T06:03:55.803Z,44.00
2019-02-19T06:04:55.741Z,52.00
2019-02-19T06:06:48.508Z,68.00
2019-02-19T06:07:48.471Z,76.00
2019-02-19T06:09:41.190Z,92.00
2019-02-19T06:10:41.114Z,104.00
2019-02-19T06:12:33.913Z,116.00
2019-02-19T06:13:33.855Z,120.00
2019-02-19T06:15:26.589Z,144.00
2019-02-19T06:16:26.526Z,156.00
2019-02-19T06:18:19.302Z,180.00
2019-02-19T06:19:19.222Z,196.00
2019-02-19T06:21:11.160Z,228.00
2019-02-19T06:22:11.093Z,248.00
2019-02-19T06:24:03.867Z,284.00
2019-02-19T06:25:03.783Z,316.00
2019-02-19T06:26:55.850Z,368.00
2019-02-19T06:27:55.750Z,396.00
2019-02-19T06:29:48.523Z,456.00
2019-02-19T06:30:48.449Z,488.00
2019-02-19T06:32:40.271Z,548.00
2019-02-19T06:33:40.162Z,584.00
2019-02-19T06:35:31.926Z,648.00
2019-02-19T06:36:31.875Z,672.00
2019-02-19T06:38:23.668Z,708.00
2019-02-19T06:39:23.627Z,716.00
2019-02-19T06:41:15.453Z,724.00
2019-02-19T06:42:15.296Z,752.00
2019-02-19T06:44:07.119Z,800.00
2019-02-19T06:45:07.135Z,824.00
2019-02-19T06:47:06.677Z,872.00
2019-02-19T06:47:59.808Z,904.00
2019-02-19T06:49:51.690Z,984.00
2019-02-19T06:50:51.587Z,1016.00
2019-02-19T06:52:43.339Z,1076.00
2019-02-19T06:53:43.359Z,1128.00
2019-02-19T06:55:35.132Z,1248.00
2019-02-19T06:56:34.976Z,1300.00
2019-02-19T06:58:27.823Z,1388.00
2019-02-19T06:59:27.792Z,1436.00
2019-02-19T07:01:20.819Z,1524.00
2019-02-19T07:02:20.568Z,1552.00
2019-02-19T07:04:12.200Z,1648.00
2019-02-19T07:05:12.194Z,1732.00
2019-02-19T07:07:03.987Z,1800.00
2019-02-19T07:08:03.888Z,1828.00
2019-02-19T07:09:55.882Z,1928.00
2019-02-19T07:10:55.786Z,1992.00
2019-02-19T07:12:47.579Z,2016.00
2019-02-19T07:13:47.402Z,2044.00
2019-02-19T07:15:39.216Z,2040.00
2019-02-19T07:16:39.186Z,2080.00
2019-02-19T07:18:31.054Z,2116.00
2019-02-19T07:19:30.986Z,2148.00
2019-02-19T07:21:22.780Z,2256.00
2019-02-19T07:22:22.736Z,2336.00
2019-02-19T07:24:14.514Z,2404.00
2019-02-19T07:25:14.421Z,2452.00
2019-02-19T07:27:06.348Z,2500.00
2019-02-19T07:28:06.301Z,2556.00
2019-02-19T07:29:58.288Z,2664.00
2019-02-19T07:30:57.999Z,2712.00
2019-02-19T07:32:50.894Z,2836.00
2019-02-19T07:33:50.750Z,2932.00
2019-02-19T07:35:43.606Z,2860.00
2019-02-19T07:36:43.582Z,2964.00
2019-02-19T07:38:35.463Z,3032.00
2019-02-19T07:39:35.257Z,2884.00
2019-02-19T07:41:28.154Z,2736.00
2019-02-19T07:42:28.278Z,2544.00
2019-02-19T07:44:20.849Z,2464.00
2019-02-19T07:45:20.791Z,2476.00
2019-02-19T07:47:12.752Z,2628.00
2019-02-19T07:48:12.502Z,2704.00
2019-02-19T07:50:04.347Z,2796.00
2019-02-19T07:51:04.259Z,2820.00
2019-02-19T07:52:56.150Z,2876.00
2019-02-19T07:53:56.088Z,2936.00
2019-02-19T07:55:47.839Z,3084.00
2019-02-19T07:56:47.761Z,3232.00
2019-02-19T07:58:39.552Z,3388.00
2019-02-19T07:59:39.457Z,3420.00
2019-02-19T08:01:32.213Z,3460.00
2019-02-19T08:02:32.141Z,3568.00
2019-02-19T08:04:24.010Z,3824.00
2019-02-19T08:05:23.918Z,3980.00
2019-02-19T08:07:15.683Z,3952.00
2019-02-19T08:08:15.573Z,4016.00
2019-02-19T08:10:07.541Z,4104.00
2019-02-19T08:11:07.470Z,4104.00
2019-02-19T08:13:00.244Z,3780.00
2019-02-19T08:14:00.163Z,3828.00
2019-02-19T08:15:51.916Z,3952.00
2019-02-19T08:16:51.841Z,4048.00
2019-02-19T08:18:43.747Z,4268.00
2019-02-19T08:19:43.629Z,4536.00
2019-02-19T08:21:35.434Z,4876.00
2019-02-19T08:22:35.332Z,4760.00
2019-02-19T08:24:27.126Z,4548.00
2019-02-19T08:25:27.017Z,4672.00
2019-02-19T08:27:18.771Z,4544.00
2019-02-19T08:28:18.702Z,4496.00
2019-02-19T08:30:11.159Z,4036.00
2019-02-19T08:31:10.393Z,4188.00
2019-02-19T08:33:02.152Z,3776.00
2019-02-19T08:34:02.066Z,3764.00
2019-02-19T08:35:53.901Z,4024.00
2019-02-19T08:36:53.814Z,4144.00
2019-02-19T08:38:45.796Z,4080.00
2019-02-19T08:39:45.699Z,3840.00
2019-02-19T08:41:37.446Z,4088.00
2019-02-19T08:42:37.377Z,4080.00
2019-02-19T08:44:29.161Z,3876.00
2019-02-19T08:45:29.077Z,3880.00
2019-02-19T08:47:20.858Z,3732.00
2019-02-19T08:48:20.794Z,3400.00
2019-02-19T08:50:12.571Z,1892.00
2019-02-19T08:51:12.477Z,1608.00
2019-02-19T08:53:04.258Z,1484.00
2019-02-19T08:54:04.187Z,1472.00
2019-02-19T08:55:55.957Z,1616.00
2019-02-19T08:56:55.876Z,1600.00
2019-02-19T08:58:48.655Z,1736.00
2019-02-19T08:59:48.596Z,1692.00
2019-02-19T09:01:41.327Z,1616.00
2019-02-19T09:02:41.264Z,1644.00
2019-02-19T09:04:33.026Z,1536.00
2019-02-19T09:05:32.951Z,1412.00
2019-02-19T09:07:25.724Z,1164.00
2019-02-19T09:08:25.648Z,1140.00
2019-02-19T09:10:17.440Z,1128.00
2019-02-19T09:11:17.357Z,1248.00
2019-02-19T09:13:09.173Z,1560.00
2019-02-19T09:14:09.098Z,1572.00
2019-02-19T09:16:01.893Z,1552.00
2019-02-19T09:17:01.797Z,1632.00
2019-02-19T09:18:54.586Z,2068.00
2019-02-19T09:19:54.512Z,2584.00
2019-02-19T09:21:47.273Z,2248.00
2019-02-19T09:22:47.197Z,2000.00
2019-02-19T09:24:40.157Z,2144.00
2019-02-19T09:25:39.901Z,2148.00
2019-02-19T09:27:32.821Z,2276.00
2019-02-19T09:28:32.610Z,2296.00
2019-02-19T09:30:25.358Z,2112.00
2019-02-19T09:31:25.326Z,2200.00
2019-02-19T09:33:18.064Z,2432.00
2019-02-19T09:34:18.010Z,2472.00
2019-02-19T09:36:09.754Z,2644.00
2019-02-19T09:37:09.675Z,2676.00
2019-02-19T09:39:02.505Z,2588.00
2019-02-19T09:40:02.374Z,2496.00
2019-02-19T09:41:54.177Z,2012.00
2019-02-19T09:42:54.106Z,1772.00
2019-02-19T09:44:45.931Z,1632.00
2019-02-19T09:45:45.863Z,1452.00
2019-02-19T09:47:38.637Z,1972.00
2019-02-19T09:48:38.578Z,2160.00
2019-02-19T09:50:31.354Z,2064.00
2019-02-19T09:51:31.270Z,2108.00
2019-02-19T09:53:23.190Z,2120.00
2019-02-19T09:54:23.094Z,1904.00
2019-02-19T09:56:15.858Z,1928.00
2019-02-19T09:57:15.782Z,2032.00
2019-02-19T09:59:07.728Z,2420.00
2019-02-19T10:00:07.651Z,2464.00
2019-02-19T10:02:00.473Z,2752.00
2019-02-19T10:03:00.342Z,2496.00
2019-02-19T10:04:52.103Z,2296.00
2019-02-19T10:05:52.051Z,2348.00
2019-02-19T10:07:44.797Z,1980.00
2019-02-19T10:08:44.730Z,1740.00
2019-02-19T10:10:37.507Z,1396.00
2019-02-19T10:11:37.426Z,1500.00
2019-02-19T10:13:30.196Z,1948.00
2019-02-19T10:14:30.135Z,2104.00
2019-02-19T10:16:22.929Z,1940.00
2019-02-19T10:17:22.841Z,1932.00
2019-02-19T10:19:15.616Z,2092.00
2019-02-19T10:20:15.537Z,2352.00
2019-02-19T10:22:07.308Z,2516.00
2019-02-19T10:23:07.240Z,2188.00
2019-02-19T10:24:59.126Z,2452.00
2019-02-19T10:25:59.043Z,2364.00
2019-02-19T10:27:51.822Z,1588.00
2019-02-19T10:28:51.757Z,1472.00
2019-02-19T10:30:44.531Z,1500.00
2019-02-19T10:31:44.453Z,1552.00
2019-02-19T10:33:36.338Z,1700.00
2019-02-19T10:34:36.255Z,1768.00
2019-02-19T10:36:29.065Z,2096.00
2019-02-19T10:37:29.034Z,2164.00
2019-02-19T10:39:21.812Z,2404.00
2019-02-19T10:40:21.730Z,2480.00
2019-02-19T10:42:13.547Z,2672.00
2019-02-19T10:43:13.508Z,2972.00
2019-02-19T10:45:05.322Z,2768.00
2019-02-19T10:46:05.245Z,2560.00
2019-02-19T10:47:57.078Z,2568.00
2019-02-19T10:48:57.008Z,2652.00
2019-02-19T10:50:48.782Z,2700.00
2019-02-19T10:51:48.699Z,2676.00
2019-02-19T10:53:41.473Z,2892.00
2019-02-19T10:54:41.435Z,2976.00
2019-02-19T10:56:33.241Z,3352.00
2019-02-19T10:57:33.157Z,3540.00
2019-02-19T10:59:25.932Z,3752.00
2019-02-19T11:00:25.856Z,3520.00
2019-02-19T11:02:17.623Z,4040.00
2019-02-19T11:03:17.565Z,3916.00
2019-02-19T11:05:09.372Z,3652.00
2019-02-19T11:06:09.302Z,3676.00
2019-02-19T11:08:02.083Z,3824.00
2019-02-19T11:09:02.024Z,3900.00
2019-02-19T11:10:53.812Z,4060.00
2019-02-19T11:11:53.863Z,4100.00
2019-02-19T11:13:46.455Z,4036.00
2019-02-19T11:14:46.392Z,4044.00
2019-02-19T11:16:39.166Z,4048.00
2019-02-19T11:17:39.090Z,4008.00
2019-02-19T11:19:31.879Z,4004.00
2019-02-19T11:20:31.816Z,4044.00
2019-02-19T11:22:23.620Z,4060.00
2019-02-19T11:23:23.553Z,4040.00
2019-02-19T11:25:16.359Z,3928.00
2019-02-19T11:26:16.283Z,3772.00
2019-02-19T11:28:09.040Z,3096.00
2019-02-19T11:29:08.977Z,2896.00
2019-02-19T11:31:00.797Z,2744.00
2019-02-19T11:32:00.749Z,2476.00
2019-02-19T11:33:53.487Z,2592.00
2019-02-19T11:34:53.404Z,2380.00
2019-02-19T11:36:45.299Z,2084.00
2019-02-19T11:37:45.154Z,1920.00
2019-02-19T11:39:37.935Z,1808.00
2019-02-19T11:40:37.897Z,1920.00
2019-02-19T11:42:30.610Z,1632.00
2019-02-19T11:43:30.545Z,1724.00
2019-02-19T11:45:23.344Z,1700.00
2019-02-19T11:46:23.249Z,1620.00
2019-02-19T11:48:16.007Z,1724.00
2019-02-19T11:49:15.936Z,1896.00
2019-02-19T11:51:08.736Z,1972.00
2019-02-19T11:52:08.653Z,1944.00
2019-02-19T11:54:01.400Z,2484.00
2019-02-19T11:55:01.338Z,2648.00
2019-02-19T11:56:53.264Z,3424.00
2019-02-19T11:57:53.186Z,3416.00
2019-02-19T11:59:45.989Z,3312.00
2019-02-19T12:00:45.870Z,3480.00
2019-02-19T12:02:38.649Z,3704.00
2019-02-19T12:03:38.587Z,3844.00
2019-02-19T12:05:30.487Z,3364.00
2019-02-19T12:06:30.413Z,3336.00
2019-02-19T12:08:22.151Z,3828.00
2019-02-19T12:09:22.083Z,3968.00
2019-02-19T12:11:14.899Z,3756.00
2019-02-19T12:12:14.794Z,3884.00
2019-02-19T12:14:07.584Z,3740.00
2019-02-19T12:15:07.517Z,3900.00
2019-02-19T12:17:00.301Z,4008.00
2019-02-19T12:18:00.220Z,3992.00
2019-02-19T12:19:52.993Z,3972.00
2019-02-19T12:20:52.932Z,3968.00
2019-02-19T12:22:46.035Z,3852.00
2019-02-19T12:23:45.649Z,3884.00
2019-02-19T12:25:38.489Z,3732.00
2019-02-19T12:26:38.315Z,3720.00
2019-02-19T12:28:31.091Z,3860.00
2019-02-19T12:29:31.023Z,3864.00
2019-02-19T12:31:23.814Z,3872.00
2019-02-19T12:32:23.722Z,3852.00
2019-02-19T12:34:16.502Z,3772.00
2019-02-19T12:35:17.132Z,3760.00
2019-02-19T12:37:08.342Z,3700.00
2019-02-19T12:38:08.273Z,3628.00
2019-02-19T12:40:01.054Z,3636.00
2019-02-19T12:41:00.944Z,3632.00
2019-02-19T12:42:53.737Z,3540.00
2019-02-19T12:43:53.672Z,3528.00
2019-02-19T12:45:46.465Z,3468.00
2019-02-19T12:46:46.375Z,3332.00
2019-02-19T12:48:38.265Z,3152.00
2019-02-19T12:49:38.158Z,3000.00
2019-02-19T12:51:29.960Z,3104.00
2019-02-19T12:52:29.874Z,3028.00
2019-02-19T12:54:21.628Z,2896.00
2019-02-19T12:55:21.559Z,2876.00
2019-02-19T12:57:14.753Z,2920.00
2019-02-19T12:58:14.329Z,2752.00
2019-02-19T13:00:07.061Z,2708.00
2019-02-19T13:01:06.993Z,2656.00
2019-02-19T13:02:59.756Z,2568.00
2019-02-19T13:03:59.694Z,2600.00
2019-02-19T13:05:51.450Z,2564.00
2019-02-19T13:06:51.374Z,2616.00
2019-02-19T13:08:44.146Z,2372.00
2019-02-19T13:09:44.075Z,2168.00
2019-02-19T13:11:36.861Z,2080.00
2019-02-19T13:12:36.771Z,2092.00
2019-02-19T13:14:28.603Z,2168.00
2019-02-19T13:15:28.517Z,2052.00
2019-02-19T13:17:21.244Z,2276.00
2019-02-19T13:18:21.157Z,2256.00
2019-02-19T13:20:13.970Z,2124.00
2019-02-19T13:21:13.889Z,1808.00
2019-02-19T13:23:05.673Z,1524.00
2019-02-19T13:24:05.613Z,1504.00
2019-02-19T13:25:58.414Z,1448.00
2019-02-19T13:26:58.330Z,1424.00
2019-02-19T13:28:50.353Z,2012.00
2019-02-19T13:29:50.152Z,2012.00
2019-02-19T13:31:42.924Z,2048.00
2019-02-19T13:32:42.845Z,1920.00
2019-02-19T13:34:34.752Z,1156.00
2019-02-19T13:35:34.679Z,1100.00
2019-02-19T13:37:26.682Z,1120.00
2019-02-19T13:38:26.573Z,1348.00
2019-02-19T13:40:18.465Z,2080.00
2019-02-19T13:41:18.480Z,2212.00
2019-02-19T13:43:10.349Z,2148.00
2019-02-19T13:44:10.330Z,2092.00
2019-02-19T13:46:03.059Z,2012.00
2019-02-19T13:47:02.997Z,2224.00
2019-02-19T13:48:54.880Z,2196.00
2019-02-19T13:49:54.778Z,2264.00
2019-02-19T13:51:47.569Z,2480.00
2019-02-19T13:52:47.543Z,2040.00
2019-02-19T13:54:40.409Z,1816.00
2019-02-19T13:55:40.233Z,1832.00
2019-02-19T13:57:33.024Z,1760.00
2019-02-19T13:58:32.931Z,1700.00
2019-02-19T14:00:25.727Z,1816.00
2019-02-19T14:01:25.648Z,1848.00
2019-02-19T14:03:17.398Z,2036.00
2019-02-19T14:04:17.328Z,1880.00
2019-02-19T14:06:09.102Z,1864.00
2019-02-19T14:07:09.098Z,1780.00
2019-02-19T14:09:01.787Z,1780.00
2019-02-19T14:10:01.709Z,1700.00
2019-02-19T14:11:53.480Z,1404.00
2019-02-19T14:12:53.404Z,1244.00
2019-02-19T14:14:46.187Z,1332.00
2019-02-19T14:15:46.147Z,1240.00
2019-02-19T14:17:37.953Z,1248.00
2019-02-19T14:18:37.858Z,1320.00
2019-02-19T14:20:30.682Z,1300.00
2019-02-19T14:21:30.583Z,1496.00
2019-02-19T14:23:22.341Z,1548.00
2019-02-19T14:24:22.262Z,1620.00
2019-02-19T14:26:14.166Z,1768.00
2019-02-19T14:27:14.101Z,1832.00
2019-02-19T14:29:06.840Z,1948.00
2019-02-19T14:30:06.941Z,1888.00
2019-02-19T14:31:58.581Z,1912.00
2019-02-19T14:32:58.498Z,1924.00
2019-02-19T14:34:50.289Z,1760.00
2019-02-19T14:35:50.209Z,1604.00
2019-02-19T14:37:42.978Z,1624.00
2019-02-19T14:38:42.909Z,1592.00
2019-02-19T14:40:34.741Z,1632.00
2019-02-19T14:41:34.631Z,1572.00
2019-02-19T14:43:26.442Z,1480.00
2019-02-19T14:44:26.355Z,1472.00
2019-02-19T14:46:19.145Z,1348.00
2019-02-19T14:47:19.063Z,1412.00
2019-02-19T14:49:11.824Z,1412.00
2019-02-19T14:50:11.757Z,1292.00
2019-02-19T14:52:03.640Z,1084.00
2019-02-19T14:53:03.845Z,1000.00
2019-02-19T14:54:55.375Z,900.00
2019-02-19T14:55:55.302Z,892.00
2019-02-19T14:57:48.096Z,816.00
2019-02-19T14:58:48.044Z,720.00
2019-02-19T15:00:40.885Z,512.00
2019-02-19T15:01:40.742Z,444.00
2019-02-19T15:03:32.626Z,408.00
2019-02-19T15:04:32.471Z,480.00
2019-02-19T15:06:25.321Z,628.00
2019-02-19T15:07:25.188Z,616.00
2019-02-19T15:09:18.152Z,580.00
2019-02-19T15:10:18.055Z,552.00
2019-02-19T15:12:09.943Z,608.00
2019-02-19T15:13:09.837Z,636.00
2019-02-19T15:15:02.609Z,612.00
2019-02-19T15:16:02.557Z,588.00
2019-02-19T15:17:54.368Z,464.00
2019-02-19T15:18:54.220Z,452.00
2019-02-19T15:20:46.132Z,504.00
2019-02-19T15:21:46.047Z,488.00
2019-02-19T15:23:38.798Z,448.00
2019-02-19T15:24:38.691Z,424.00
2019-02-19T15:26:30.524Z,384.00
2019-02-19T15:27:30.387Z,352.00
2019-02-19T15:29:23.192Z,328.00
2019-02-19T15:30:23.130Z,292.00
2019-02-19T15:32:16.737Z,236.00
2019-02-19T15:33:16.652Z,212.00
2019-02-19T15:35:09.437Z,172.00
2019-02-19T15:36:09.402Z,168.00
2019-02-19T15:38:01.200Z,164.00
2019-02-19T15:39:01.122Z,160.00
2019-02-19T15:40:53.937Z,160.00
2019-02-19T15:41:53.849Z,164.00
2019-02-19T15:43:45.705Z,184.00
2019-02-19T15:44:45.619Z,204.00
2019-02-19T15:46:38.426Z,204.00
2019-02-19T15:47:38.342Z,188.00
2019-02-19T15:49:31.091Z,176.00
2019-02-19T15:50:31.029Z,168.00
2019-02-19T15:52:23.787Z,156.00
2019-02-19T15:53:23.706Z,156.00
2019-02-19T15:55:16.500Z,152.00
2019-02-19T15:56:17.843Z,148.00
2019-02-19T15:58:10.062Z,140.00
2019-02-19T15:59:09.994Z,144.00
2019-02-19T16:01:02.781Z,156.00
2019-02-19T16:02:02.715Z,152.00
2019-02-19T16:03:55.514Z,152.00
2019-02-19T16:04:55.422Z,144.00
2019-02-19T16:06:48.209Z,128.00
2019-02-19T16:07:48.139Z,124.00
2019-02-19T16:09:41.040Z,112.00
2019-02-19T16:10:40.986Z,104.00
2019-02-19T16:12:33.793Z,88.00
2019-02-19T16:13:33.694Z,84.00
2019-02-19T16:15:26.460Z,68.00
2019-02-19T16:16:26.388Z,64.00
2019-02-19T16:18:18.234Z,56.00
2019-02-19T16:19:18.168Z,52.00
2019-02-19T16:21:10.999Z,44.00
2019-02-19T16:22:10.862Z,36.00
2019-02-19T16:24:02.661Z,32.00
2019-02-19T16:25:02.543Z,28.00
2019-02-19T16:26:55.313Z,28.00
2019-02-19T16:27:55.229Z,24.00
2019-02-19T16:29:46.982Z,24.00
2019-02-19T16:30:46.910Z,20.00
2019-02-19T16:32:38.762Z,16.00
2019-02-19T16:33:38.691Z,12.00
2019-02-19T16:35:31.462Z,12.00
2019-02-19T16:36:31.403Z,12.00
2019-02-19T16:38:24.292Z,8.00
2019-02-19T16:39:24.192Z,8.00
2019-02-19T16:41:16.950Z,4.00
2019-02-19T16:42:16.928Z,4.00
2019-02-19T16:44:09.667Z,4.00
2019-02-19T16:45:09.589Z,4.00
2019-02-19T16:47:01.337Z,0.00
2019-02-19T16:48:01.279Z,0.00
2019-02-19T16:49:54.099Z,0.00
2019-02-19T16:50:53.971Z,0.00
2019-02-19T16:52:45.882Z,0.00
2019-02-19T16:53:45.692Z,0.00
2019-02-19T16:55:38.511Z,0.00
2019-02-19T16:56:38.435Z,0.00
2019-02-19T16:58:31.228Z,0.00
2019-02-19T16:59:31.098Z,0.00
2019-02-19T17:01:22.883Z,0.00
2019-02-19T17:02:22.812Z,0.00
2019-02-19T17:04:15.613Z,0.00
2019-02-19T17:05:15.509Z,0.00
2019-02-19T17:07:08.256Z,0.00
2019-02-19T17:08:08.194Z,0.00
2019-02-19T17:10:00.942Z,0.00
2019-02-19T17:11:00.891Z,0.00
2019-02-19T17:12:53.637Z,0.00
2019-02-19T17:13:58.416Z,0.00
2019-02-19T17:15:46.526Z,0.00
2019-02-19T17:16:46.303Z,0.00
2019-02-19T17:18:39.120Z,0.00
2019-02-19T17:19:39.058Z,0.00
2019-02-19T17:21:31.826Z,0.00
2019-02-19T17:22:31.745Z,0.00
2019-02-19T17:24:24.530Z,0.00
2019-02-19T17:25:24.465Z,0.00
2019-02-19T17:27:16.360Z,0.00
2019-02-19T17:28:16.271Z,0.00
2019-02-19T17:30:08.138Z,0.00
2019-02-19T17:31:08.046Z,0.00
2019-02-19T17:32:59.867Z,0.00
2019-02-19T17:33:59.811Z,0.00
2019-02-19T17:35:52.664Z,0.00
2019-02-19T17:36:52.528Z,0.00
2019-02-19T17:38:45.256Z,0.00
2019-02-19T17:39:45.185Z,0.00
2019-02-19T17:41:37.976Z,0.00
2019-02-19T17:42:37.870Z,0.00
2019-02-19T17:44:30.632Z,0.00
2019-02-19T17:45:30.603Z,0.00
2019-02-19T17:47:22.391Z,0.00
2019-02-19T17:48:22.308Z,0.00
2019-02-19T17:50:15.089Z,0.00
2019-02-19T17:51:15.014Z,0.00
2019-02-19T17:53:07.791Z,0.00
2019-02-19T17:54:07.706Z,0.00
2019-02-19T17:56:00.480Z,0.00
2019-02-19T17:57:00.411Z,0.00
2019-02-19T17:58:52.177Z,0.00
2019-02-19T17:59:52.099Z,0.00
2019-02-19T18:01:44.881Z,0.00
2019-02-19T18:02:44.913Z,0.00
2019-02-19T18:04:37.551Z,0.00
2019-02-19T18:05:37.521Z,0.00
2019-02-19T18:07:29.465Z,0.00
2019-02-19T18:08:29.352Z,0.00
2019-02-19T18:10:22.105Z,0.00